Darstellungsparameter: Aktuell verwendete Einstellungen:
Skalierung der Graphiken ... ?
xyx+y,   Skalierungsfaktor:      Skalierung: Modus: x, Faktor: 1
Darstellungszeitraum ... ?
Vom - - bis: - -   Zeitraum: 29.04.2019 - 29.04.2019
Min/Max/Avg-Anzeige ... ?
Zeige MMA aktuell
Zeige MMA Monat
Zeige MMA alles
Zeige --A aktuell
Zeige --A Monat
Zeige --A alles
Keine MMA-Anzeige
MMA:
Keine MMA-Graphiken
MMA-Basis: 29.04.2019 - 29.04.2019
Quicknavigation für Darstellung... ?
Tage:      1T, 2T, 3T, 5T -1T -2T -3T -5T +1T +2T +3T +5T
Wochen: 1W, 2W, 3W -1W -2W -3W +1W +2W +3W
Monate: 1M, 3M, 6M -1M -3M -6M +1M +3M +6M
Jahre:    1J, 3J, 5J, 10J -1J -3J -5J -10J +1J +3J +5J +10J
Nutze für die Darstellung ... ?
Originaldaten oder Mittelwerte auf ...
Stundenbasis Tagesbasis Wochenbasis
Monatsbasis Jahresbasis      Datenbasis: Original-Daten
Darstellen als:
Statistik (Auto) Statistik J:M      Darstellung:
Zur Graphik,    zurück zur Übersicht aller Sensoren.
 
Tabellarische Datenbersicht: ?
 
Sensor: Nr:Datum:Temp:Feuchte:Taupunkt:
Aussen-T/F 1 29-04-2019 00:00:00 4.7 C 93 % 3.67 C
2 29-04-2019 00:05:00 4.7 C 93 % 3.67 C
3 29-04-2019 00:10:00 4.7 C 94 % 3.82 C
4 29-04-2019 00:15:00 4.6 C 93 % 3.57 C
5 29-04-2019 00:20:00 4.5 C 93 % 3.47 C
6 29-04-2019 00:25:00 4.4 C 93 % 3.37 C
7 29-04-2019 00:30:00 4.3 C 94 % 3.42 C
8 29-04-2019 00:35:00 4.3 C 94 % 3.42 C
9 29-04-2019 00:40:00 4.2 C 94 % 3.32 C
10 29-04-2019 00:45:00 4.2 C 94 % 3.32 C
11 29-04-2019 00:50:00 4.2 C 94 % 3.32 C
12 29-04-2019 00:55:00 4.2 C 94 % 3.32 C
13 29-04-2019 01:00:00 4.3 C 94 % 3.42 C
14 29-04-2019 01:05:00 4.4 C 94 % 3.52 C
15 29-04-2019 01:10:00 4.3 C 94 % 3.42 C
16 29-04-2019 01:15:00 4.3 C 94 % 3.42 C
17 29-04-2019 01:20:00 4.3 C 94 % 3.42 C
18 29-04-2019 01:25:00 4.2 C 94 % 3.32 C
19 29-04-2019 01:30:00 4 C 94 % 3.12 C
20 29-04-2019 01:35:00 3.9 C 94 % 3.02 C
21 29-04-2019 01:40:00 3.8 C 94 % 2.93 C
22 29-04-2019 01:45:00 3.7 C 94 % 2.83 C
23 29-04-2019 01:50:00 3.6 C 94 % 2.73 C
24 29-04-2019 01:55:00 3.6 C 94 % 2.73 C
25 29-04-2019 02:00:00 3.7 C 95 % 2.98 C
Sensor: Nr:Datum:Temp:Feuchte:Taupunkt:
Aussen-T/F 26 29-04-2019 02:05:00 3.6 C 95 % 2.88 C
27 29-04-2019 02:10:00 3.6 C 95 % 2.88 C
28 29-04-2019 02:15:00 3.4 C 94 % 2.53 C
29 29-04-2019 02:20:00 3.3 C 94 % 2.43 C
30 29-04-2019 02:25:00 3.3 C 94 % 2.43 C
31 29-04-2019 02:30:00 3.3 C 95 % 2.58 C
32 29-04-2019 02:35:00 3.3 C 95 % 2.58 C
33 29-04-2019 02:40:00 3.3 C 95 % 2.58 C
34 29-04-2019 02:45:00 3.4 C 95 % 2.68 C
35 29-04-2019 02:50:00 3.4 C 95 % 2.68 C
36 29-04-2019 02:55:00 3.5 C 95 % 2.78 C
37 29-04-2019 03:00:00 3.5 C 95 % 2.78 C
38 29-04-2019 03:05:00 3.5 C 95 % 2.78 C
39 29-04-2019 03:10:00 3.6 C 95 % 2.88 C
40 29-04-2019 03:15:00 3.6 C 95 % 2.88 C
41 29-04-2019 03:20:00 3.7 C 95 % 2.98 C
42 29-04-2019 03:25:00 3.7 C 95 % 2.98 C
43 29-04-2019 03:30:00 3.7 C 95 % 2.98 C
44 29-04-2019 03:35:00 3.8 C 95 % 3.07 C
45 29-04-2019 03:40:00 3.8 C 95 % 3.07 C
46 29-04-2019 03:45:00 3.8 C 95 % 3.07 C
47 29-04-2019 03:50:00 3.7 C 95 % 2.98 C
48 29-04-2019 03:55:00 3.7 C 95 % 2.98 C
49 29-04-2019 04:00:00 3.7 C 95 % 2.98 C
50 29-04-2019 04:05:00 3.6 C 95 % 2.88 C
Sensor: Nr:Datum:Temp:Feuchte:Taupunkt:
Aussen-T/F 51 29-04-2019 04:10:00 3.6 C 95 % 2.88 C
52 29-04-2019 04:15:00 3.6 C 95 % 2.88 C
53 29-04-2019 04:20:00 3.6 C 95 % 2.88 C
54 29-04-2019 04:25:00 3.6 C 96 % 3.02 C
55 29-04-2019 04:30:00 3.6 C 96 % 3.02 C
56 29-04-2019 04:35:00 3.5 C 96 % 2.92 C
57 29-04-2019 04:40:00 3.4 C 96 % 2.82 C
58 29-04-2019 04:45:00 3.4 C 96 % 2.82 C
59 29-04-2019 04:50:00 3.4 C 96 % 2.82 C
60 29-04-2019 04:55:00 3.5 C 96 % 2.92 C
61 29-04-2019 05:00:00 3.5 C 96 % 2.92 C
62 29-04-2019 05:05:00 3.5 C 96 % 2.92 C
63 29-04-2019 05:10:00 3.4 C 96 % 2.82 C
64 29-04-2019 05:15:00 3.4 C 96 % 2.82 C
65 29-04-2019 05:20:00 3.4 C 96 % 2.82 C
66 29-04-2019 05:25:00 3.4 C 96 % 2.82 C
67 29-04-2019 05:30:00 3.3 C 96 % 2.72 C
68 29-04-2019 05:35:00 3.3 C 96 % 2.72 C
69 29-04-2019 05:40:00 3.3 C 96 % 2.72 C
70 29-04-2019 05:45:00 3.3 C 96 % 2.72 C
71 29-04-2019 05:50:00 3.3 C 96 % 2.72 C
72 29-04-2019 05:55:00 3.2 C 96 % 2.63 C
73 29-04-2019 06:00:00 3.2 C 96 % 2.63 C
74 29-04-2019 06:05:00 3.2 C 96 % 2.63 C
75 29-04-2019 06:10:00 3.2 C 96 % 2.63 C
Sensor: Nr:Datum:Temp:Feuchte:Taupunkt:
Aussen-T/F 76 29-04-2019 06:15:00 3.2 C 96 % 2.63 C
77 29-04-2019 06:20:00 3.2 C 96 % 2.63 C
78 29-04-2019 06:25:00 3.2 C 96 % 2.63 C
79 29-04-2019 06:30:00 3.1 C 96 % 2.53 C
80 29-04-2019 06:35:00 3.1 C 96 % 2.53 C
81 29-04-2019 06:40:00 3.1 C 96 % 2.53 C
82 29-04-2019 06:45:00 3.1 C 96 % 2.53 C
83 29-04-2019 06:50:00 3.1 C 96 % 2.53 C
84 29-04-2019 06:55:00 3.1 C 96 % 2.53 C
85 29-04-2019 07:00:00 3.1 C 96 % 2.53 C
86 29-04-2019 07:05:00 3.1 C 96 % 2.53 C
87 29-04-2019 07:10:00 3.1 C 96 % 2.53 C
88 29-04-2019 07:15:00 3.1 C 96 % 2.53 C
89 29-04-2019 07:20:00 3.2 C 96 % 2.63 C
90 29-04-2019 07:25:00 3.2 C 96 % 2.63 C
91 29-04-2019 07:30:00 3.2 C 96 % 2.63 C
92 29-04-2019 07:35:00 3.3 C 96 % 2.72 C
93 29-04-2019 07:40:00 3.3 C 96 % 2.72 C
94 29-04-2019 07:45:00 3.3 C 96 % 2.72 C
95 29-04-2019 07:50:00 3.4 C 96 % 2.82 C
96 29-04-2019 07:55:00 3.4 C 96 % 2.82 C
97 29-04-2019 08:00:00 3.5 C 96 % 2.92 C
98 29-04-2019 08:05:00 3.6 C 96 % 3.02 C
99 29-04-2019 08:10:00 3.6 C 96 % 3.02 C
100 29-04-2019 08:15:00 3.7 C 96 % 3.12 C
Sensor: Nr:Datum:Temp:Feuchte:Taupunkt:
Aussen-T/F 101 29-04-2019 08:20:00 3.7 C 96 % 3.12 C
102 29-04-2019 08:25:00 3.8 C 97 % 3.37 C
103 29-04-2019 08:30:00 3.9 C 97 % 3.47 C
104 29-04-2019 08:35:00 3.9 C 96 % 3.32 C
105 29-04-2019 08:40:00 4 C 96 % 3.42 C
106 29-04-2019 08:45:00 4.1 C 97 % 3.67 C
107 29-04-2019 08:50:00 4.2 C 97 % 3.77 C
108 29-04-2019 08:55:00 4.3 C 97 % 3.87 C
109 29-04-2019 09:00:00 4.4 C 97 % 3.97 C
110 29-04-2019 09:05:00 4.5 C 97 % 4.07 C
111 29-04-2019 09:10:00 4.6 C 97 % 4.17 C
112 29-04-2019 09:15:00 4.7 C 97 % 4.27 C
113 29-04-2019 09:20:00 4.8 C 97 % 4.37 C
114 29-04-2019 09:25:00 5 C 97 % 4.56 C
115 29-04-2019 09:30:00 5.1 C 97 % 4.66 C
116 29-04-2019 09:35:00 5.2 C 97 % 4.76 C
117 29-04-2019 09:40:00 5.3 C 97 % 4.86 C
118 29-04-2019 09:45:00 5.4 C 97 % 4.96 C
119 29-04-2019 09:50:00 5.5 C 97 % 5.06 C
120 29-04-2019 09:55:00 5.4 C 97 % 4.96 C
121 29-04-2019 10:00:00 5.7 C 96 % 5.11 C
122 29-04-2019 10:05:00 5.8 C 96 % 5.21 C
123 29-04-2019 10:10:00 5.9 C 96 % 5.31 C
124 29-04-2019 10:15:00 6.2 C 96 % 5.61 C
125 29-04-2019 10:20:00 6.3 C 96 % 5.71 C
Sensor: Nr:Datum:Temp:Feuchte:Taupunkt:
Aussen-T/F 126 29-04-2019 10:25:00 6.5 C 96 % 5.91 C
127 29-04-2019 10:30:00 6.6 C 95 % 5.86 C
128 29-04-2019 10:35:00 6.8 C 95 % 6.06 C
129 29-04-2019 10:40:00 6.9 C 95 % 6.16 C
130 29-04-2019 10:45:00 7.1 C 94 % 6.2 C
131 29-04-2019 10:50:00 7.2 C 94 % 6.3 C
132 29-04-2019 10:55:00 7.2 C 93 % 6.15 C
133 29-04-2019 11:00:00 7.4 C 93 % 6.34 C
134 29-04-2019 11:05:00 7.6 C 93 % 6.54 C
135 29-04-2019 11:10:00 7.8 C 93 % 6.74 C
136 29-04-2019 11:15:00 8 C 92 % 6.78 C
137 29-04-2019 11:20:00 8.2 C 92 % 6.98 C
138 29-04-2019 11:25:00 8.4 C 92 % 7.18 C
139 29-04-2019 11:30:00 8.8 C 92 % 7.57 C
140 29-04-2019 11:35:00 9.1 C 91 % 7.71 C
141 29-04-2019 11:40:00 9.4 C 90 % 7.85 C
142 29-04-2019 11:45:00 9.7 C 88 % 7.81 C
143 29-04-2019 11:50:00 9.9 C 87 % 7.84 C
144 29-04-2019 11:55:00 10.1 C 86 % 7.87 C
145 29-04-2019 12:00:00 10.4 C 85 % 7.99 C
146 29-04-2019 12:05:00 10.7 C 84 % 8.11 C
147 29-04-2019 12:10:00 11.1 C 83 % 8.33 C
148 29-04-2019 12:15:00 11.3 C 80 % 7.98 C
149 29-04-2019 12:20:00 11.5 C 78 % 7.8 C
150 29-04-2019 12:25:00 11.8 C 79 % 8.28 C
Sensor: Nr:Datum:Temp:Feuchte:Taupunkt:
Aussen-T/F 151 29-04-2019 12:30:00 12.1 C 75 % 7.81 C
152 29-04-2019 12:35:00 12.3 C 76 % 8.2 C
153 29-04-2019 12:40:00 12.6 C 72 % 7.69 C
154 29-04-2019 12:45:00 12.8 C 73 % 8.09 C
155 29-04-2019 12:50:00 13.2 C 71 % 8.06 C
156 29-04-2019 12:55:00 13.3 C 69 % 7.74 C
157 29-04-2019 13:00:00 13.5 C 67 % 7.5 C
158 29-04-2019 13:05:00 13.7 C 65 % 7.25 C
159 29-04-2019 13:10:00 13.8 C 63 % 6.89 C
160 29-04-2019 13:15:00 13.9 C 63 % 6.98 C
161 29-04-2019 13:20:00 14 C 64 % 7.31 C
162 29-04-2019 13:25:00 14 C 64 % 7.31 C
163 29-04-2019 13:30:00 14 C 64 % 7.31 C
164 29-04-2019 13:35:00 14 C 64 % 7.31 C
165 29-04-2019 13:40:00 14 C 62 % 6.84 C
166 29-04-2019 13:45:00 14.2 C 63 % 7.27 C
167 29-04-2019 13:50:00 14.3 C 61 % 6.89 C
168 29-04-2019 13:55:00 14.3 C 60 % 6.65 C
169 29-04-2019 14:00:00 14.3 C 59 % 6.41 C
170 29-04-2019 14:05:00 14.4 C 60 % 6.74 C
171 29-04-2019 14:10:00 14.4 C 60 % 6.74 C
172 29-04-2019 14:15:00 14.7 C 57 % 6.28 C
173 29-04-2019 14:20:00 14.7 C 56 % 6.02 C
174 29-04-2019 14:25:00 14.8 C 59 % 6.87 C
175 29-04-2019 14:30:00 14.8 C 57 % 6.37 C
Sensor: Nr:Datum:Temp:Feuchte:Taupunkt:
Aussen-T/F 176 29-04-2019 14:35:00 14.9 C 56 % 6.21 C
177 29-04-2019 14:40:00 15.2 C 56 % 6.49 C
178 29-04-2019 14:45:00 15.3 C 55 % 6.32 C
179 29-04-2019 14:50:00 15.3 C 55 % 6.32 C
180 29-04-2019 14:55:00 15.2 C 55 % 6.23 C
181 29-04-2019 15:00:00 15.2 C 56 % 6.49 C
182 29-04-2019 15:05:00 15.3 C 57 % 6.84 C
183 29-04-2019 15:10:00 15.3 C 55 % 6.32 C
184 29-04-2019 15:15:00 15.3 C 57 % 6.84 C
185 29-04-2019 15:20:00 15.2 C 57 % 6.75 C
186 29-04-2019 15:25:00 15.3 C 57 % 6.84 C
187 29-04-2019 15:30:00 15.3 C 55 % 6.32 C
188 29-04-2019 15:35:00 15.3 C 56 % 6.58 C
189 29-04-2019 15:40:00 15.2 C 56 % 6.49 C
190 29-04-2019 15:45:00 15.3 C 58 % 7.09 C
191 29-04-2019 15:50:00 15.4 C 56 % 6.68 C
192 29-04-2019 15:55:00 15.4 C 56 % 6.68 C
193 29-04-2019 16:00:00 15.3 C 54 % 6.06 C
194 29-04-2019 16:05:00 15.3 C 54 % 6.06 C
195 29-04-2019 16:10:00 15.3 C 55 % 6.32 C
196 29-04-2019 16:15:00 15.3 C 55 % 6.32 C
197 29-04-2019 16:20:00 15.3 C 56 % 6.58 C
198 29-04-2019 16:25:00 15.3 C 55 % 6.32 C
199 29-04-2019 16:30:00 15.3 C 55 % 6.32 C
200 29-04-2019 16:35:00 15.3 C 54 % 6.06 C
Sensor: Nr:Datum:Temp:Feuchte:Taupunkt:
Aussen-T/F 201 29-04-2019 16:40:00 15.3 C 55 % 6.32 C
202 29-04-2019 16:45:00 15.3 C 58 % 7.09 C
203 29-04-2019 16:50:00 15.4 C 56 % 6.68 C
204 29-04-2019 16:55:00 15.4 C 57 % 6.93 C
205 29-04-2019 17:00:00 15.4 C 56 % 6.68 C
206 29-04-2019 17:05:00 15.4 C 57 % 6.93 C
207 29-04-2019 17:10:00 15.4 C 56 % 6.68 C
208 29-04-2019 17:15:00 15.4 C 55 % 6.42 C
209 29-04-2019 17:20:00 15.4 C 54 % 6.15 C
210 29-04-2019 17:25:00 15.4 C 55 % 6.42 C
211 29-04-2019 17:30:00 15.3 C 57 % 6.84 C
212 29-04-2019 17:35:00 15.3 C 56 % 6.58 C
213 29-04-2019 17:40:00 15.3 C 56 % 6.58 C
214 29-04-2019 17:45:00 15.2 C 56 % 6.49 C
215 29-04-2019 17:50:00 15.2 C 55 % 6.23 C
216 29-04-2019 17:55:00 15.1 C 56 % 6.4 C
217 29-04-2019 18:00:00 14.9 C 57 % 6.47 C
218 29-04-2019 18:05:00 14.7 C 58 % 6.53 C
219 29-04-2019 18:10:00 14.4 C 60 % 6.74 C
220 29-04-2019 18:15:00 14.2 C 63 % 7.27 C
221 29-04-2019 18:20:00 13.9 C 63 % 6.98 C
222 29-04-2019 18:25:00 13.7 C 65 % 7.25 C
223 29-04-2019 18:30:00 13.6 C 69 % 8.03 C
224 29-04-2019 18:35:00 13.4 C 72 % 8.46 C
225 29-04-2019 18:40:00 13.3 C 77 % 9.36 C
Sensor: Nr:Datum:Temp:Feuchte:Taupunkt:
Aussen-T/F 226 29-04-2019 18:45:00 13.1 C 77 % 9.16 C
227 29-04-2019 18:50:00 12.7 C 80 % 9.34 C
228 29-04-2019 18:55:00 12.4 C 83 % 9.6 C
229 29-04-2019 19:00:00 12.2 C 84 % 9.58 C
230 29-04-2019 19:05:00 11.9 C 86 % 9.64 C
231 29-04-2019 19:10:00 11.7 C 86 % 9.44 C
232 29-04-2019 19:15:00 11.4 C 87 % 9.32 C
233 29-04-2019 19:20:00 11.2 C 88 % 9.29 C
234 29-04-2019 19:25:00 11 C 88 % 9.09 C
235 29-04-2019 19:30:00 10.9 C 89 % 9.16 C
236 29-04-2019 19:35:00 10.7 C 89 % 8.96 C
237 29-04-2019 19:40:00 10.6 C 90 % 9.03 C
238 29-04-2019 19:45:00 10.5 C 90 % 8.93 C
239 29-04-2019 19:50:00 10.4 C 90 % 8.83 C
240 29-04-2019 19:55:00 10.4 C 90 % 8.83 C
241 29-04-2019 20:00:00 10.3 C 91 % 8.9 C
242 29-04-2019 20:05:00 10.3 C 91 % 8.9 C
243 29-04-2019 20:10:00 10.3 C 91 % 8.9 C
244 29-04-2019 20:15:00 10.3 C 91 % 8.9 C
245 29-04-2019 20:20:00 10.2 C 91 % 8.8 C
246 29-04-2019 20:25:00 10.3 C 92 % 9.06 C
247 29-04-2019 20:30:00 10.3 C 92 % 9.06 C
248 29-04-2019 20:35:00 10.2 C 92 % 8.96 C
249 29-04-2019 20:40:00 10.2 C 92 % 8.96 C
250 29-04-2019 20:45:00 10.2 C 92 % 8.96 C
Sensor: Nr:Datum:Temp:Feuchte:Taupunkt:
Aussen-T/F 251 29-04-2019 20:50:00 10.2 C 92 % 8.96 C
252 29-04-2019 20:55:00 10.2 C 92 % 8.96 C
253 29-04-2019 21:00:00 10.2 C 92 % 8.96 C
254 29-04-2019 21:05:00 10.1 C 93 % 9.02 C
255 29-04-2019 21:10:00 10.1 C 93 % 9.02 C
256 29-04-2019 21:15:00 10.1 C 93 % 9.02 C
257 29-04-2019 21:20:00 10.1 C 93 % 9.02 C
258 29-04-2019 21:25:00 10.1 C 92 % 8.86 C
259 29-04-2019 21:30:00 10.1 C 92 % 8.86 C
260 29-04-2019 21:35:00 10.1 C 92 % 8.86 C
261 29-04-2019 21:40:00 10.1 C 92 % 8.86 C
262 29-04-2019 21:45:00 10.2 C 92 % 8.96 C
263 29-04-2019 21:50:00 10.2 C 92 % 8.96 C
264 29-04-2019 21:55:00 10.2 C 92 % 8.96 C
265 29-04-2019 22:00:00 10.2 C 92 % 8.96 C
266 29-04-2019 22:05:00 10.2 C 92 % 8.96 C
267 29-04-2019 22:10:00 10.2 C 92 % 8.96 C
268 29-04-2019 22:15:00 10.3 C 92 % 9.06 C
269 29-04-2019 22:20:00 10.3 C 92 % 9.06 C
270 29-04-2019 22:25:00 10.2 C 92 % 8.96 C
271 29-04-2019 22:30:00 10.2 C 92 % 8.96 C
272 29-04-2019 22:35:00 10.3 C 92 % 9.06 C
273 29-04-2019 22:40:00 10.3 C 92 % 9.06 C
274 29-04-2019 22:45:00 10.3 C 91 % 8.9 C
275 29-04-2019 22:50:00 10.3 C 91 % 8.9 C
Sensor: Nr:Datum:Temp:Feuchte:Taupunkt:
Aussen-T/F 276 29-04-2019 22:55:00 10.3 C 91 % 8.9 C
277 29-04-2019 23:00:00 10.4 C 90 % 8.83 C
278 29-04-2019 23:05:00 10.5 C 90 % 8.93 C
279 29-04-2019 23:10:00 10.6 C 90 % 9.03 C
280 29-04-2019 23:15:00 10.6 C 89 % 8.86 C
281 29-04-2019 23:20:00 10.7 C 90 % 9.13 C
282 29-04-2019 23:25:00 10.7 C 89 % 8.96 C
283 29-04-2019 23:30:00 10.7 C 89 % 8.96 C
284 29-04-2019 23:35:00 10.7 C 89 % 8.96 C
285 29-04-2019 23:40:00 10.8 C 90 % 9.23 C
286 29-04-2019 23:45:00 10.8 C 90 % 9.23 C
287 29-04-2019 23:50:00 10.7 C 90 % 9.13 C
288 29-04-2019 23:55:00 10.7 C 89 % 8.96 C

Legende:
   Min
   Max


Maximal/Minimal-Werte vom 29.04.2019 - 29.04.2019

Sensor Min Max Avg
Temp
(Aussen-T/F)
3.1 °C
29-04-2019  06:30:00
15.4 °C
29-04-2019  15:50:00
8.57 °C
Feuchte
(Aussen-T/F)
54 %
29-04-2019  16:00:00
97 %
29-04-2019  08:25:00
84.47 %
Taupunkt
(Aussen-T/F)
2.43 C
29-04-2019  02:20:00
9.64 C
29-04-2019  19:05:00
5.74 C

Die Daten stammen von einer Davis Vantage Pro 2 Wetter-Station und werden unter Linux mit der Software wview2wettercgi und aufbereitet. Alle Angaben erfolgen ohne Gewähr für ihre Vollständigkeit oder Richtigkeit.
Kontakt: Rainer Krienke krienke@uni-koblenz.de . Meine Webseiten an der Uni Koblenz oder privat.
Version: $Revision: 0.78 $